sensor_id;sensor_type;location;lat;lon;timestamp;P1;durP1;ratioP1;P2;durP2;ratioP2
7460;SDS011;6757;52.258;12.840;2023-12-20T00:01:01;1.85;;;1.67;;
7460;SDS011;6757;52.258;12.840;2023-12-20T00:03:30;5.13;;;2.17;;
7460;SDS011;6757;52.258;12.840;2023-12-20T00:05:57;5.53;;;1.92;;
7460;SDS011;6757;52.258;12.840;2023-12-20T00:08:24;2.75;;;1.65;;
7460;SDS011;6757;52.258;12.840;2023-12-20T00:10:52;3.53;;;1.67;;
7460;SDS011;6757;52.258;12.840;2023-12-20T00:13:19;1.92;;;1.42;;
7460;SDS011;6757;52.258;12.840;2023-12-20T00:15:45;6.90;;;2.17;;
7460;SDS011;6757;52.258;12.840;2023-12-20T00:18:12;7.60;;;2.63;;
7460;SDS011;6757;52.258;12.840;2023-12-20T00:20:42;2.25;;;1.20;;
7460;SDS011;6757;52.258;12.840;2023-12-20T00:23:10;5.80;;;2.25;;
7460;SDS011;6757;52.258;12.840;2023-12-20T00:25:37;4.28;;;2.15;;
7460;SDS011;6757;52.258;12.840;2023-12-20T00:28:04;3.78;;;1.65;;
7460;SDS011;6757;52.258;12.840;2023-12-20T00:30:31;4.85;;;2.22;;
7460;SDS011;6757;52.258;12.840;2023-12-20T00:32:59;6.10;;;2.00;;
7460;SDS011;6757;52.258;12.840;2023-12-20T00:35:26;6.00;;;2.58;;
7460;SDS011;6757;52.258;12.840;2023-12-20T00:37:55;4.53;;;2.22;;
7460;SDS011;6757;52.258;12.840;2023-12-20T00:40:21;2.95;;;1.60;;
7460;SDS011;6757;52.258;12.840;2023-12-20T00:42:48;3.10;;;2.05;;
7460;SDS011;6757;52.258;12.840;2023-12-20T00:45:15;4.38;;;1.95;;
7460;SDS011;6757;52.258;12.840;2023-12-20T00:47:43;3.80;;;2.20;;
7460;SDS011;6757;52.258;12.840;2023-12-20T00:50:10;4.20;;;2.55;;
7460;SDS011;6757;52.258;12.840;2023-12-20T00:52:37;3.67;;;2.00;;
7460;SDS011;6757;52.258;12.840;2023-12-20T00:55:06;2.50;;;1.75;;
7460;SDS011;6757;52.258;12.840;2023-12-20T00:57:33;3.83;;;1.85;;
7460;SDS011;6757;52.258;12.840;2023-12-20T01:00:01;6.13;;;2.05;;
7460;SDS011;6757;52.258;12.840;2023-12-20T01:02:30;5.05;;;2.03;;
7460;SDS011;6757;52.258;12.840;2023-12-20T01:04:58;4.07;;;2.33;;
7460;SDS011;6757;52.258;12.840;2023-12-20T01:07:25;2.58;;;1.45;;
7460;SDS011;6757;52.258;12.840;2023-12-20T01:09:52;5.70;;;2.15;;
7460;SDS011;6757;52.258;12.840;2023-12-20T01:12:20;3.85;;;2.00;;
7460;SDS011;6757;52.258;12.840;2023-12-20T01:14:48;3.45;;;1.85;;
7460;SDS011;6757;52.258;12.840;2023-12-20T01:17:15;2.13;;;1.30;;
7460;SDS011;6757;52.258;12.840;2023-12-20T01:19:43;4.28;;;1.75;;
7460;SDS011;6757;52.258;12.840;2023-12-20T01:22:11;5.15;;;1.85;;
7460;SDS011;6757;52.258;12.840;2023-12-20T01:24:39;6.82;;;2.72;;
7460;SDS011;6757;52.258;12.840;2023-12-20T01:27:07;4.60;;;1.65;;
7460;SDS011;6757;52.258;12.840;2023-12-20T01:29:35;2.65;;;1.70;;
7460;SDS011;6757;52.258;12.840;2023-12-20T01:32:03;5.70;;;1.80;;
7460;SDS011;6757;52.258;12.840;2023-12-20T01:34:32;2.80;;;1.65;;
7460;SDS011;6757;52.258;12.840;2023-12-20T01:36:59;3.35;;;1.75;;
7460;SDS011;6757;52.258;12.840;2023-12-20T01:39:27;3.28;;;1.45;;
7460;SDS011;6757;52.258;12.840;2023-12-20T01:41:54;4.13;;;1.70;;
7460;SDS011;6757;52.258;12.840;2023-12-20T01:44:22;2.95;;;1.65;;
7460;SDS011;6757;52.258;12.840;2023-12-20T01:46:50;6.30;;;2.20;;
7460;SDS011;6757;52.258;12.840;2023-12-20T01:49:19;2.70;;;1.98;;
7460;SDS011;6757;52.258;12.840;2023-12-20T01:51:47;2.28;;;1.45;;
7460;SDS011;6757;52.258;12.840;2023-12-20T01:54:15;2.47;;;1.13;;
7460;SDS011;6757;52.258;12.840;2023-12-20T01:56:42;2.75;;;1.75;;
7460;SDS011;6757;52.258;12.840;2023-12-20T01:59:09;3.67;;;1.33;;
7460;SDS011;6757;52.258;12.840;2023-12-20T02:01:36;5.47;;;2.08;;
7460;SDS011;6757;52.258;12.840;2023-12-20T02:04:04;2.70;;;1.52;;
7460;SDS011;6757;52.258;12.840;2023-12-20T02:06:32;4.63;;;1.92;;
7460;SDS011;6757;52.258;12.840;2023-12-20T02:09:00;4.50;;;2.35;;
7460;SDS011;6757;52.258;12.840;2023-12-20T02:11:27;5.47;;;1.70;;
7460;SDS011;6757;52.258;12.840;2023-12-20T02:13:54;3.83;;;1.42;;
7460;SDS011;6757;52.258;12.840;2023-12-20T02:16:21;5.80;;;2.05;;
7460;SDS011;6757;52.258;12.840;2023-12-20T02:18:50;1.88;;;1.20;;
7460;SDS011;6757;52.258;12.840;2023-12-20T02:21:18;5.63;;;2.72;;
7460;SDS011;6757;52.258;12.840;2023-12-20T02:23:52;5.55;;;2.10;;
7460;SDS011;6757;52.258;12.840;2023-12-20T02:26:20;3.95;;;1.67;;
7460;SDS011;6757;52.258;12.840;2023-12-20T02:28:47;5.13;;;2.70;;
7460;SDS011;6757;52.258;12.840;2023-12-20T02:31:14;3.38;;;2.05;;
7460;SDS011;6757;52.258;12.840;2023-12-20T02:33:41;5.10;;;1.98;;
7460;SDS011;6757;52.258;12.840;2023-12-20T02:36:09;2.88;;;1.95;;
7460;SDS011;6757;52.258;12.840;2023-12-20T02:38:39;6.13;;;2.45;;
7460;SDS011;6757;52.258;12.840;2023-12-20T02:41:06;3.15;;;1.85;;
7460;SDS011;6757;52.258;12.840;2023-12-20T02:43:33;3.08;;;1.50;;
7460;SDS011;6757;52.258;12.840;2023-12-20T02:46:01;3.95;;;1.95;;
7460;SDS011;6757;52.258;12.840;2023-12-20T02:48:29;4.53;;;2.05;;
7460;SDS011;6757;52.258;12.840;2023-12-20T02:50:57;5.07;;;2.53;;
7460;SDS011;6757;52.258;12.840;2023-12-20T02:53:24;3.00;;;1.58;;
7460;SDS011;6757;52.258;12.840;2023-12-20T02:55:54;4.07;;;1.73;;
7460;SDS011;6757;52.258;12.840;2023-12-20T02:58:21;4.72;;;1.63;;
7460;SDS011;6757;52.258;12.840;2023-12-20T03:00:48;2.72;;;1.42;;
7460;SDS011;6757;52.258;12.840;2023-12-20T03:03:15;1.05;;;0.88;;
7460;SDS011;6757;52.258;12.840;2023-12-20T03:05:45;2.95;;;1.23;;
7460;SDS011;6757;52.258;12.840;2023-12-20T03:08:12;2.75;;;1.10;;
7460;SDS011;6757;52.258;12.840;2023-12-20T03:10:40;0.82;;;0.75;;
7460;SDS011;6757;52.258;12.840;2023-12-20T03:13:09;2.10;;;1.17;;
7460;SDS011;6757;52.258;12.840;2023-12-20T03:15:36;1.52;;;0.95;;
7460;SDS011;6757;52.258;12.840;2023-12-20T03:18:03;2.47;;;1.15;;
7460;SDS011;6757;52.258;12.840;2023-12-20T03:20:32;1.80;;;1.17;;
7460;SDS011;6757;52.258;12.840;2023-12-20T03:23:00;1.10;;;0.70;;
7460;SDS011;6757;52.258;12.840;2023-12-20T03:25:27;9.65;;;1.48;;
7460;SDS011;6757;52.258;12.840;2023-12-20T03:27:54;2.67;;;1.30;;
7460;SDS011;6757;52.258;12.840;2023-12-20T03:30:23;3.15;;;1.25;;
7460;SDS011;6757;52.258;12.840;2023-12-20T03:32:50;2.15;;;1.58;;
7460;SDS011;6757;52.258;12.840;2023-12-20T03:35:17;1.73;;;0.98;;
7460;SDS011;6757;52.258;12.840;2023-12-20T03:37:45;3.05;;;1.88;;
7460;SDS011;6757;52.258;12.840;2023-12-20T03:40:11;3.15;;;1.65;;
7460;SDS011;6757;52.258;12.840;2023-12-20T03:42:39;4.68;;;1.65;;
7460;SDS011;6757;52.258;12.840;2023-12-20T03:45:06;9.32;;;1.60;;
7460;SDS011;6757;52.258;12.840;2023-12-20T03:47:37;2.63;;;1.88;;
7460;SDS011;6757;52.258;12.840;2023-12-20T03:50:04;4.60;;;1.85;;
7460;SDS011;6757;52.258;12.840;2023-12-20T03:52:33;4.15;;;1.98;;
7460;SDS011;6757;52.258;12.840;2023-12-20T03:55:00;2.58;;;1.30;;
7460;SDS011;6757;52.258;12.840;2023-12-20T03:57:27;3.67;;;1.92;;
7460;SDS011;6757;52.258;12.840;2023-12-20T03:59:54;5.80;;;2.50;;
7460;SDS011;6757;52.258;12.840;2023-12-20T04:02:21;7.00;;;2.70;;
7460;SDS011;6757;52.258;12.840;2023-12-20T04:04:50;7.13;;;2.78;;
7460;SDS011;6757;52.258;12.840;2023-12-20T04:07:18;6.03;;;2.55;;
7460;SDS011;6757;52.258;12.840;2023-12-20T04:09:44;3.33;;;1.25;;
7460;SDS011;6757;52.258;12.840;2023-12-20T04:12:13;6.90;;;2.78;;
7460;SDS011;6757;52.258;12.840;2023-12-20T04:14:40;7.60;;;3.15;;
7460;SDS011;6757;52.258;12.840;2023-12-20T04:17:07;6.47;;;2.22;;
7460;SDS011;6757;52.258;12.840;2023-12-20T04:19:34;5.93;;;2.65;;
7460;SDS011;6757;52.258;12.840;2023-12-20T04:22:02;6.75;;;3.22;;
7460;SDS011;6757;52.258;12.840;2023-12-20T04:24:30;7.15;;;2.63;;
7460;SDS011;6757;52.258;12.840;2023-12-20T04:26:56;4.22;;;2.15;;
7460;SDS011;6757;52.258;12.840;2023-12-20T04:29:24;4.75;;;2.03;;
7460;SDS011;6757;52.258;12.840;2023-12-20T04:31:51;5.82;;;1.85;;
7460;SDS011;6757;52.258;12.840;2023-12-20T04:34:19;6.32;;;2.42;;
7460;SDS011;6757;52.258;12.840;2023-12-20T04:36:47;8.32;;;2.45;;
7460;SDS011;6757;52.258;12.840;2023-12-20T04:39:16;5.05;;;2.55;;
7460;SDS011;6757;52.258;12.840;2023-12-20T04:41:43;8.52;;;3.53;;
7460;SDS011;6757;52.258;12.840;2023-12-20T04:44:09;5.22;;;1.75;;
7460;SDS011;6757;52.258;12.840;2023-12-20T04:46:36;3.28;;;1.52;;
7460;SDS011;6757;52.258;12.840;2023-12-20T04:49:03;4.50;;;2.05;;
7460;SDS011;6757;52.258;12.840;2023-12-20T04:51:32;3.13;;;1.23;;
7460;SDS011;6757;52.258;12.840;2023-12-20T04:54:00;3.90;;;1.75;;
7460;SDS011;6757;52.258;12.840;2023-12-20T04:56:29;1.83;;;1.13;;
7460;SDS011;6757;52.258;12.840;2023-12-20T04:58:56;3.92;;;1.13;;
7460;SDS011;6757;52.258;12.840;2023-12-20T05:01:23;3.22;;;1.70;;
7460;SDS011;6757;52.258;12.840;2023-12-20T05:03:51;2.60;;;1.25;;
7460;SDS011;6757;52.258;12.840;2023-12-20T05:06:18;4.95;;;1.95;;
7460;SDS011;6757;52.258;12.840;2023-12-20T05:08:45;3.17;;;1.35;;
7460;SDS011;6757;52.258;12.840;2023-12-20T05:11:14;2.22;;;1.30;;
7460;SDS011;6757;52.258;12.840;2023-12-20T05:13:43;4.28;;;1.25;;
7460;SDS011;6757;52.258;12.840;2023-12-20T05:16:10;3.15;;;1.40;;
7460;SDS011;6757;52.258;12.840;2023-12-20T05:18:39;3.17;;;1.55;;
7460;SDS011;6757;52.258;12.840;2023-12-20T05:21:06;3.95;;;1.92;;
7460;SDS011;6757;52.258;12.840;2023-12-20T05:23:33;4.03;;;1.80;;
7460;SDS011;6757;52.258;12.840;2023-12-20T05:26:01;3.95;;;1.25;;
7460;SDS011;6757;52.258;12.840;2023-12-20T05:28:28;1.50;;;1.08;;
7460;SDS011;6757;52.258;12.840;2023-12-20T05:30:58;1.55;;;0.90;;
7460;SDS011;6757;52.258;12.840;2023-12-20T05:33:28;2.65;;;1.02;;
7460;SDS011;6757;52.258;12.840;2023-12-20T05:35:56;2.38;;;0.98;;
7460;SDS011;6757;52.258;12.840;2023-12-20T05:38:23;2.72;;;1.20;;
7460;SDS011;6757;52.258;12.840;2023-12-20T05:40:53;2.40;;;1.33;;
7460;SDS011;6757;52.258;12.840;2023-12-20T05:43:20;0.82;;;0.82;;
7460;SDS011;6757;52.258;12.840;2023-12-20T05:45:47;0.73;;;0.52;;
7460;SDS011;6757;52.258;12.840;2023-12-20T05:48:17;1.10;;;0.93;;
7460;SDS011;6757;52.258;12.840;2023-12-20T05:50:44;2.35;;;0.95;;
7460;SDS011;6757;52.258;12.840;2023-12-20T05:53:11;2.13;;;1.58;;
7460;SDS011;6757;52.258;12.840;2023-12-20T05:55:39;3.40;;;1.05;;
7460;SDS011;6757;52.258;12.840;2023-12-20T05:58:06;5.97;;;0.77;;
7460;SDS011;6757;52.258;12.840;2023-12-20T06:00:33;5.88;;;1.10;;
7460;SDS011;6757;52.258;12.840;2023-12-20T06:03:01;1.25;;;0.73;;
7460;SDS011;6757;52.258;12.840;2023-12-20T06:05:31;0.70;;;0.57;;
7460;SDS011;6757;52.258;12.840;2023-12-20T06:07:58;3.05;;;1.58;;
7460;SDS011;6757;52.258;12.840;2023-12-20T06:10:27;3.15;;;0.47;;
7460;SDS011;6757;52.258;12.840;2023-12-20T06:12:57;0.77;;;0.77;;
7460;SDS011;6757;52.258;12.840;2023-12-20T06:15:25;1.85;;;0.90;;
7460;SDS011;6757;52.258;12.840;2023-12-20T06:17:53;1.00;;;0.77;;
7460;SDS011;6757;52.258;12.840;2023-12-20T06:20:23;2.08;;;1.08;;
7460;SDS011;6757;52.258;12.840;2023-12-20T06:22:54;1.75;;;1.13;;
7460;SDS011;6757;52.258;12.840;2023-12-20T06:25:21;2.72;;;1.00;;
7460;SDS011;6757;52.258;12.840;2023-12-20T06:27:48;2.13;;;1.10;;
7460;SDS011;6757;52.258;12.840;2023-12-20T06:30:15;1.60;;;1.10;;
7460;SDS011;6757;52.258;12.840;2023-12-20T06:32:42;2.28;;;0.68;;
7460;SDS011;6757;52.258;12.840;2023-12-20T06:35:11;0.93;;;0.73;;
7460;SDS011;6757;52.258;12.840;2023-12-20T06:37:39;4.63;;;0.75;;
7460;SDS011;6757;52.258;12.840;2023-12-20T06:40:10;0.70;;;0.43;;
7460;SDS011;6757;52.258;12.840;2023-12-20T06:42:37;0.32;;;0.25;;
7460;SDS011;6757;52.258;12.840;2023-12-20T06:45:05;0.50;;;0.50;;
7460;SDS011;6757;52.258;12.840;2023-12-20T06:47:33;2.40;;;0.93;;
7460;SDS011;6757;52.258;12.840;2023-12-20T06:50:00;3.63;;;0.68;;
7460;SDS011;6757;52.258;12.840;2023-12-20T06:52:27;3.25;;;0.95;;
7460;SDS011;6757;52.258;12.840;2023-12-20T06:54:55;0.60;;;0.20;;
7460;SDS011;6757;52.258;12.840;2023-12-20T06:57:24;6.68;;;0.90;;
7460;SDS011;6757;52.258;12.840;2023-12-20T06:59:52;0.38;;;0.38;;
7460;SDS011;6757;52.258;12.840;2023-12-20T07:02:20;5.40;;;1.25;;
7460;SDS011;6757;52.258;12.840;2023-12-20T07:04:47;3.58;;;1.27;;
7460;SDS011;6757;52.258;12.840;2023-12-20T07:07:14;0.63;;;0.63;;
7460;SDS011;6757;52.258;12.840;2023-12-20T07:09:42;2.83;;;1.23;;
7460;SDS011;6757;52.258;12.840;2023-12-20T07:12:09;2.33;;;1.15;;
7460;SDS011;6757;52.258;12.840;2023-12-20T07:14:37;0.47;;;0.47;;
7460;SDS011;6757;52.258;12.840;2023-12-20T07:17:05;1.15;;;0.80;;
7460;SDS011;6757;52.258;12.840;2023-12-20T07:19:36;3.40;;;1.30;;
7460;SDS011;6757;52.258;12.840;2023-12-20T07:22:03;0.40;;;0.38;;
7460;SDS011;6757;52.258;12.840;2023-12-20T07:24:34;2.15;;;1.60;;
7460;SDS011;6757;52.258;12.840;2023-12-20T07:27:01;1.15;;;0.82;;
7460;SDS011;6757;52.258;12.840;2023-12-20T07:29:29;0.20;;;0.20;;
7460;SDS011;6757;52.258;12.840;2023-12-20T07:31:57;0.57;;;0.57;;
7460;SDS011;6757;52.258;12.840;2023-12-20T07:34:25;1.88;;;1.15;;
7460;SDS011;6757;52.258;12.840;2023-12-20T07:36:52;0.90;;;0.82;;
7460;SDS011;6757;52.258;12.840;2023-12-20T07:39:19;1.55;;;0.90;;
7460;SDS011;6757;52.258;12.840;2023-12-20T07:41:46;1.25;;;0.70;;
7460;SDS011;6757;52.258;12.840;2023-12-20T07:44:13;5.18;;;0.75;;
7460;SDS011;6757;52.258;12.840;2023-12-20T07:46:40;0.57;;;0.57;;
7460;SDS011;6757;52.258;12.840;2023-12-20T07:49:08;0.77;;;0.73;;
7460;SDS011;6757;52.258;12.840;2023-12-20T07:51:35;3.22;;;0.90;;
7460;SDS011;6757;52.258;12.840;2023-12-20T07:54:02;0.50;;;0.50;;
7460;SDS011;6757;52.258;12.840;2023-12-20T07:56:29;1.17;;;0.68;;
7460;SDS011;6757;52.258;12.840;2023-12-20T07:58:56;1.95;;;1.17;;
7460;SDS011;6757;52.258;12.840;2023-12-20T08:01:24;3.50;;;1.90;;
7460;SDS011;6757;52.258;12.840;2023-12-20T08:03:51;0.63;;;0.52;;
7460;SDS011;6757;52.258;12.840;2023-12-20T08:06:19;2.35;;;0.85;;
7460;SDS011;6757;52.258;12.840;2023-12-20T08:08:47;2.83;;;1.15;;
7460;SDS011;6757;52.258;12.840;2023-12-20T08:11:14;0.50;;;0.50;;
7460;SDS011;6757;52.258;12.840;2023-12-20T08:13:42;2.42;;;1.00;;
7460;SDS011;6757;52.258;12.840;2023-12-20T08:16:09;1.05;;;0.82;;
7460;SDS011;6757;52.258;12.840;2023-12-20T08:18:38;7.75;;;1.23;;
7460;SDS011;6757;52.258;12.840;2023-12-20T08:21:05;0.85;;;0.85;;
7460;SDS011;6757;52.258;12.840;2023-12-20T08:23:35;3.33;;;1.02;;
7460;SDS011;6757;52.258;12.840;2023-12-20T08:26:03;0.25;;;0.22;;
7460;SDS011;6757;52.258;12.840;2023-12-20T08:28:31;2.85;;;1.88;;
7460;SDS011;6757;52.258;12.840;2023-12-20T08:30:59;2.25;;;0.70;;
7460;SDS011;6757;52.258;12.840;2023-12-20T08:33:27;2.50;;;1.10;;
7460;SDS011;6757;52.258;12.840;2023-12-20T08:35:54;2.35;;;0.75;;
7460;SDS011;6757;52.258;12.840;2023-12-20T08:38:21;0.70;;;0.70;;
7460;SDS011;6757;52.258;12.840;2023-12-20T08:40:49;1.08;;;0.50;;
7460;SDS011;6757;52.258;12.840;2023-12-20T08:43:16;4.05;;;1.38;;
7460;SDS011;6757;52.258;12.840;2023-12-20T08:45:44;1.33;;;0.55;;
7460;SDS011;6757;52.258;12.840;2023-12-20T08:48:11;4.40;;;0.55;;
7460;SDS011;6757;52.258;12.840;2023-12-20T08:50:39;0.93;;;0.50;;
7460;SDS011;6757;52.258;12.840;2023-12-20T08:53:06;1.98;;;1.08;;
7460;SDS011;6757;52.258;12.840;2023-12-20T08:55:33;1.75;;;0.80;;
7460;SDS011;6757;52.258;12.840;2023-12-20T08:58:03;4.13;;;1.08;;
7460;SDS011;6757;52.258;12.840;2023-12-20T09:00:31;0.50;;;0.50;;
7460;SDS011;6757;52.258;12.840;2023-12-20T09:02:59;0.73;;;0.73;;
7460;SDS011;6757;52.258;12.840;2023-12-20T09:05:26;1.55;;;1.45;;
7460;SDS011;6757;52.258;12.840;2023-12-20T09:07:54;1.70;;;1.05;;
7460;SDS011;6757;52.258;12.840;2023-12-20T09:10:21;1.63;;;1.20;;
7460;SDS011;6757;52.258;12.840;2023-12-20T09:12:49;4.38;;;1.10;;
7460;SDS011;6757;52.258;12.840;2023-12-20T09:15:23;3.78;;;0.88;;
7460;SDS011;6757;52.258;12.840;2023-12-20T09:17:50;1.90;;;1.25;;
7460;SDS011;6757;52.258;12.840;2023-12-20T09:20:17;2.38;;;0.73;;
7460;SDS011;6757;52.258;12.840;2023-12-20T09:22:44;2.25;;;0.73;;
7460;SDS011;6757;52.258;12.840;2023-12-20T09:25:12;1.00;;;0.63;;
7460;SDS011;6757;52.258;12.840;2023-12-20T09:27:40;1.08;;;0.55;;
7460;SDS011;6757;52.258;12.840;2023-12-20T09:30:09;2.22;;;0.95;;
7460;SDS011;6757;52.258;12.840;2023-12-20T09:32:38;2.72;;;1.15;;
7460;SDS011;6757;52.258;12.840;2023-12-20T09:35:06;0.82;;;0.82;;
7460;SDS011;6757;52.258;12.840;2023-12-20T09:37:34;1.42;;;0.77;;
7460;SDS011;6757;52.258;12.840;2023-12-20T09:40:01;3.85;;;1.80;;
7460;SDS011;6757;52.258;12.840;2023-12-20T09:42:33;5.63;;;1.27;;
7460;SDS011;6757;52.258;12.840;2023-12-20T09:45:08;5.72;;;0.70;;
7460;SDS011;6757;52.258;12.840;2023-12-20T09:47:35;3.13;;;0.88;;
7460;SDS011;6757;52.258;12.840;2023-12-20T09:50:05;1.33;;;1.23;;
7460;SDS011;6757;52.258;12.840;2023-12-20T09:52:33;4.28;;;0.95;;
7460;SDS011;6757;52.258;12.840;2023-12-20T09:55:03;1.70;;;1.02;;
7460;SDS011;6757;52.258;12.840;2023-12-20T09:57:32;1.25;;;0.80;;
7460;SDS011;6757;52.258;12.840;2023-12-20T10:00:01;5.45;;;1.33;;
7460;SDS011;6757;52.258;12.840;2023-12-20T10:02:31;3.08;;;1.73;;
7460;SDS011;6757;52.258;12.840;2023-12-20T10:05:00;1.00;;;0.60;;
7460;SDS011;6757;52.258;12.840;2023-12-20T10:07:30;1.80;;;1.35;;
7460;SDS011;6757;52.258;12.840;2023-12-20T10:09:57;0.98;;;0.55;;
7460;SDS011;6757;52.258;12.840;2023-12-20T10:12:25;1.33;;;0.70;;
7460;SDS011;6757;52.258;12.840;2023-12-20T10:14:51;9.35;;;2.33;;
7460;SDS011;6757;52.258;12.840;2023-12-20T10:17:19;1.42;;;1.05;;
7460;SDS011;6757;52.258;12.840;2023-12-20T10:19:48;1.35;;;1.02;;
7460;SDS011;6757;52.258;12.840;2023-12-20T10:22:15;3.20;;;1.17;;
7460;SDS011;6757;52.258;12.840;2023-12-20T10:24:44;5.22;;;1.00;;
7460;SDS011;6757;52.258;12.840;2023-12-20T10:27:12;8.95;;;2.15;;
7460;SDS011;6757;52.258;12.840;2023-12-20T10:29:42;0.98;;;0.88;;
7460;SDS011;6757;52.258;12.840;2023-12-20T10:32:22;1.15;;;0.93;;
7460;SDS011;6757;52.258;12.840;2023-12-20T10:34:51;1.15;;;1.02;;
7460;SDS011;6757;52.258;12.840;2023-12-20T10:37:19;1.17;;;0.60;;
7460;SDS011;6757;52.258;12.840;2023-12-20T10:39:49;4.50;;;0.98;;
7460;SDS011;6757;52.258;12.840;2023-12-20T10:42:21;2.38;;;1.25;;
7460;SDS011;6757;52.258;12.840;2023-12-20T10:44:49;4.03;;;0.75;;
7460;SDS011;6757;52.258;12.840;2023-12-20T10:47:18;1.75;;;0.98;;
7460;SDS011;6757;52.258;12.840;2023-12-20T10:49:46;2.35;;;1.15;;
7460;SDS011;6757;52.258;12.840;2023-12-20T10:52:14;5.22;;;0.82;;
7460;SDS011;6757;52.258;12.840;2023-12-20T10:54:44;0.93;;;0.45;;
7460;SDS011;6757;52.258;12.840;2023-12-20T10:57:13;5.68;;;1.63;;
7460;SDS011;6757;52.258;12.840;2023-12-20T10:59:45;1.63;;;1.17;;
7460;SDS011;6757;52.258;12.840;2023-12-20T11:02:12;4.63;;;1.13;;
7460;SDS011;6757;52.258;12.840;2023-12-20T11:04:43;0.77;;;0.77;;
7460;SDS011;6757;52.258;12.840;2023-12-20T11:07:19;3.15;;;1.50;;
7460;SDS011;6757;52.258;12.840;2023-12-20T11:09:56;2.45;;;1.83;;
7460;SDS011;6757;52.258;12.840;2023-12-20T11:15:05;0.52;;;0.47;;
7460;SDS011;6757;52.258;12.840;2023-12-20T11:17:34;1.17;;;0.60;;
7460;SDS011;6757;52.258;12.840;2023-12-20T11:20:06;2.28;;;0.55;;
7460;SDS011;6757;52.258;12.840;2023-12-20T11:22:37;1.60;;;0.82;;
7460;SDS011;6757;52.258;12.840;2023-12-20T11:25:07;2.10;;;0.70;;
7460;SDS011;6757;52.258;12.840;2023-12-20T11:27:40;1.35;;;0.63;;
7460;SDS011;6757;52.258;12.840;2023-12-20T11:30:10;1.98;;;0.90;;
7460;SDS011;6757;52.258;12.840;2023-12-20T11:32:39;2.08;;;1.25;;
7460;SDS011;6757;52.258;12.840;2023-12-20T11:35:17;6.63;;;1.48;;
7460;SDS011;6757;52.258;12.840;2023-12-20T11:37:46;2.20;;;1.67;;
7460;SDS011;6757;52.258;12.840;2023-12-20T11:40:14;4.38;;;0.95;;
7460;SDS011;6757;52.258;12.840;2023-12-20T11:42:48;4.45;;;1.30;;
7460;SDS011;6757;52.258;12.840;2023-12-20T11:45:18;2.85;;;1.42;;
7460;SDS011;6757;52.258;12.840;2023-12-20T11:47:48;0.82;;;0.63;;
7460;SDS011;6757;52.258;12.840;2023-12-20T11:50:19;2.33;;;1.17;;
7460;SDS011;6757;52.258;12.840;2023-12-20T11:52:47;3.15;;;1.00;;
7460;SDS011;6757;52.258;12.840;2023-12-20T11:55:15;0.88;;;0.75;;
7460;SDS011;6757;52.258;12.840;2023-12-20T11:57:42;4.85;;;1.50;;
7460;SDS011;6757;52.258;12.840;2023-12-20T12:00:12;5.53;;;0.52;;
7460;SDS011;6757;52.258;12.840;2023-12-20T12:02:41;5.40;;;1.67;;
7460;SDS011;6757;52.258;12.840;2023-12-20T12:05:07;2.92;;;1.20;;
7460;SDS011;6757;52.258;12.840;2023-12-20T12:07:35;1.58;;;1.38;;
7460;SDS011;6757;52.258;12.840;2023-12-20T12:10:02;2.17;;;1.08;;
7460;SDS011;6757;52.258;12.840;2023-12-20T12:12:30;3.60;;;1.35;;
7460;SDS011;6757;52.258;12.840;2023-12-20T12:15:00;1.70;;;1.13;;
7460;SDS011;6757;52.258;12.840;2023-12-20T12:17:28;4.47;;;1.30;;
7460;SDS011;6757;52.258;12.840;2023-12-20T12:20:01;5.68;;;1.05;;
7460;SDS011;6757;52.258;12.840;2023-12-20T12:22:31;2.63;;;1.42;;
7460;SDS011;6757;52.258;12.840;2023-12-20T12:25:09;7.03;;;2.10;;
7460;SDS011;6757;52.258;12.840;2023-12-20T12:27:36;0.95;;;0.80;;
7460;SDS011;6757;52.258;12.840;2023-12-20T12:30:09;0.70;;;0.45;;
7460;SDS011;6757;52.258;12.840;2023-12-20T12:32:38;3.25;;;1.63;;
7460;SDS011;6757;52.258;12.840;2023-12-20T12:35:07;2.03;;;1.10;;
7460;SDS011;6757;52.258;12.840;2023-12-20T12:37:37;0.50;;;0.50;;
7460;SDS011;6757;52.258;12.840;2023-12-20T12:40:06;2.00;;;1.27;;
7460;SDS011;6757;52.258;12.840;2023-12-20T12:42:37;1.85;;;1.42;;
7460;SDS011;6757;52.258;12.840;2023-12-20T12:45:05;2.17;;;1.00;;
7460;SDS011;6757;52.258;12.840;2023-12-20T12:47:36;1.58;;;0.98;;
7460;SDS011;6757;52.258;12.840;2023-12-20T12:50:05;2.25;;;2.05;;
7460;SDS011;6757;52.258;12.840;2023-12-20T12:52:33;1.50;;;1.40;;
7460;SDS011;6757;52.258;12.840;2023-12-20T12:55:00;2.08;;;1.30;;
7460;SDS011;6757;52.258;12.840;2023-12-20T12:57:28;2.13;;;1.23;;
7460;SDS011;6757;52.258;12.840;2023-12-20T12:59:54;2.00;;;1.13;;
7460;SDS011;6757;52.258;12.840;2023-12-20T13:02:25;0.93;;;0.93;;
7460;SDS011;6757;52.258;12.840;2023-12-20T13:04:52;1.00;;;0.93;;
7460;SDS011;6757;52.258;12.840;2023-12-20T13:07:20;0.80;;;0.70;;
7460;SDS011;6757;52.258;12.840;2023-12-20T13:09:47;1.70;;;1.05;;
7460;SDS011;6757;52.258;12.840;2023-12-20T13:12:14;0.68;;;0.68;;
7460;SDS011;6757;52.258;12.840;2023-12-20T13:14:41;3.08;;;1.15;;
7460;SDS011;6757;52.258;12.840;2023-12-20T13:17:08;1.45;;;1.15;;
7460;SDS011;6757;52.258;12.840;2023-12-20T13:19:37;2.05;;;1.10;;
7460;SDS011;6757;52.258;12.840;2023-12-20T13:22:04;2.72;;;0.63;;
7460;SDS011;6757;52.258;12.840;2023-12-20T13:24:32;1.20;;;1.10;;
7460;SDS011;6757;52.258;12.840;2023-12-20T13:26:59;2.00;;;0.80;;
7460;SDS011;6757;52.258;12.840;2023-12-20T13:29:27;3.92;;;1.00;;
7460;SDS011;6757;52.258;12.840;2023-12-20T13:31:54;1.38;;;1.13;;
7460;SDS011;6757;52.258;12.840;2023-12-20T13:34:21;2.20;;;1.45;;
7460;SDS011;6757;52.258;12.840;2023-12-20T13:36:50;2.08;;;1.33;;
7460;SDS011;6757;52.258;12.840;2023-12-20T13:39:17;0.98;;;0.75;;
7460;SDS011;6757;52.258;12.840;2023-12-20T13:41:44;1.60;;;1.10;;
7460;SDS011;6757;52.258;12.840;2023-12-20T13:44:12;1.00;;;0.85;;
7460;SDS011;6757;52.258;12.840;2023-12-20T13:46:40;0.95;;;0.90;;
7460;SDS011;6757;52.258;12.840;2023-12-20T13:49:10;4.93;;;1.52;;
7460;SDS011;6757;52.258;12.840;2023-12-20T13:51:38;1.85;;;0.63;;
7460;SDS011;6757;52.258;12.840;2023-12-20T13:54:07;0.63;;;0.60;;
7460;SDS011;6757;52.258;12.840;2023-12-20T13:56:35;0.77;;;0.77;;
7460;SDS011;6757;52.258;12.840;2023-12-20T13:59:03;1.50;;;1.27;;
7460;SDS011;6757;52.258;12.840;2023-12-20T14:01:33;1.33;;;0.85;;
7460;SDS011;6757;52.258;12.840;2023-12-20T14:04:01;0.82;;;0.65;;
7460;SDS011;6757;52.258;12.840;2023-12-20T14:06:29;1.25;;;1.08;;
7460;SDS011;6757;52.258;12.840;2023-12-20T14:08:57;1.60;;;0.68;;
7460;SDS011;6757;52.258;12.840;2023-12-20T14:11:27;0.40;;;0.40;;
7460;SDS011;6757;52.258;12.840;2023-12-20T14:13:54;1.42;;;0.85;;
7460;SDS011;6757;52.258;12.840;2023-12-20T14:16:22;2.20;;;0.88;;
7460;SDS011;6757;52.258;12.840;2023-12-20T14:18:49;0.85;;;0.60;;
7460;SDS011;6757;52.258;12.840;2023-12-20T14:21:22;1.70;;;0.65;;
7460;SDS011;6757;52.258;12.840;2023-12-20T14:23:49;0.75;;;0.75;;
7460;SDS011;6757;52.258;12.840;2023-12-20T14:26:16;1.13;;;0.80;;
7460;SDS011;6757;52.258;12.840;2023-12-20T14:28:46;0.10;;;0.10;;
7460;SDS011;6757;52.258;12.840;2023-12-20T14:31:13;0.30;;;0.30;;
7460;SDS011;6757;52.258;12.840;2023-12-20T14:33:41;2.28;;;1.20;;
7460;SDS011;6757;52.258;12.840;2023-12-20T14:36:08;1.85;;;0.77;;
7460;SDS011;6757;52.258;12.840;2023-12-20T14:38:35;0.98;;;0.45;;
7460;SDS011;6757;52.258;12.840;2023-12-20T14:41:03;0.93;;;0.70;;
7460;SDS011;6757;52.258;12.840;2023-12-20T14:43:33;1.00;;;0.60;;
7460;SDS011;6757;52.258;12.840;2023-12-20T14:46:02;4.07;;;0.95;;
7460;SDS011;6757;52.258;12.840;2023-12-20T14:48:30;0.73;;;0.73;;
7460;SDS011;6757;52.258;12.840;2023-12-20T14:50:58;1.80;;;0.77;;
7460;SDS011;6757;52.258;12.840;2023-12-20T14:53:26;1.15;;;1.05;;
7460;SDS011;6757;52.258;12.840;2023-12-20T14:55:53;1.13;;;0.40;;
7460;SDS011;6757;52.258;12.840;2023-12-20T14:58:20;0.98;;;0.40;;
7460;SDS011;6757;52.258;12.840;2023-12-20T15:00:47;0.45;;;0.45;;
7460;SDS011;6757;52.258;12.840;2023-12-20T15:03:16;0.50;;;0.47;;
7460;SDS011;6757;52.258;12.840;2023-12-20T15:05:43;0.22;;;0.22;;
7460;SDS011;6757;52.258;12.840;2023-12-20T15:08:12;0.40;;;0.40;;